Time;durP1;ratioP1;P1;durP2;ratioP2;P2;SDS_P1;SDS_P2;PMS_P1;PMS_P2;Temp;Humidity;BMP_temperature;BMP_pressure;BME280_temperature;BME280_humidity;BME280_pressure;Samples;Min_cycle;Max_cycle;Signal;HPM_P1;HPM_P2
2021/06/04 00:00:44;;;;;;;;;;;17.50;70.80;;;16.35;46.81;96101.63;10402336;28;2251;-84
2021/06/04 00:05:47;;;;;;;;;;;17.50;71.10;;;16.30;46.27;96101.75;10393323;28;2075;-84
2021/06/04 00:10:49;;;;;;;;;;;17.40;70.80;;;16.24;46.74;96108.38;10402970;28;2071;-84
2021/06/04 00:15:52;;;;;;;;;;;17.30;71.00;;;16.11;47.24;96105.38;10402645;28;1984;-83
2021/06/04 00:20:55;;;;;;;;;;;17.20;71.40;;;16.00;47.74;96103.13;10403008;28;2100;-85
2021/06/04 00:25:57;;;;;;;;;;;17.10;72.00;;;15.92;48.87;96118.19;10405687;28;2240;-85
2021/06/04 00:31:00;;;;;;;;;;;17.10;72.90;;;15.88;49.57;96119.88;10414035;28;2125;-87
2021/06/04 00:36:02;;;;;;;;;;;17.00;73.80;;;15.83;49.52;96114.56;10415188;28;2179;-85
2021/06/04 00:41:05;;;;;;;;;;;17.00;73.70;;;15.81;49.37;96120.28;10403255;28;2115;-84
2021/06/04 00:46:08;;;;;;;;;;;16.90;73.80;;;15.72;50.34;96129.41;10400986;28;2098;-83
2021/06/04 00:51:10;;;;;;;;;;;16.80;74.60;;;15.64;50.33;96123.53;10400783;28;2107;-84
2021/06/04 00:56:13;;;;;;;;;;;16.80;74.70;;;15.57;50.38;96117.66;10403455;28;2056;-85
2021/06/04 01:01:15;;;;;;;;;;;16.70;74.90;;;15.50;51.27;96122.66;10434506;28;2030;-84
2021/06/04 01:06:18;;;;;;;;;;;16.60;75.60;;;15.35;52.64;96125.63;10412730;28;1890;-85
2021/06/04 01:11:20;;;;;;;;;;;16.50;76.60;;;15.33;54.86;96130.53;10400257;28;2505;-85
2021/06/04 01:16:23;;;;;;;;;;;16.40;79.00;;;15.18;54.36;96147.81;10411028;28;2136;-84
2021/06/04 01:21:26;;;;;;;;;;;16.30;78.80;;;15.02;55.05;96152.66;10393309;28;2073;-82
2021/06/04 01:26:28;;;;;;;;;;;16.20;79.30;;;15.02;56.75;96154.56;10413957;28;2072;-86
2021/06/04 01:31:31;;;;;;;;;;;16.10;80.70;;;15.06;56.67;96155.56;10397230;28;1986;-83
2021/06/04 01:36:34;;;;;;;;;;;16.10;81.40;;;15.00;56.83;96146.72;10388891;28;1994;-85
2021/06/04 01:41:36;;;;;;;;;;;16.10;81.70;;;14.92;56.84;96143.88;10391773;28;1965;-85
2021/06/04 01:46:38;;;;;;;;;;;16.00;81.50;;;15.01;57.43;96148.31;10402666;28;1977;-83
2021/06/04 01:51:41;;;;;;;;;;;16.00;82.50;;;14.89;57.47;96150.69;10399690;28;2133;-84
2021/06/04 01:56:44;;;;;;;;;;;16.00;82.70;;;14.78;57.77;96149.19;10403450;28;2037;-82
2021/06/04 02:01:46;;;;;;;;;;;16.00;82.60;;;14.82;58.19;96147.50;10405964;28;2174;-85
2021/06/04 02:06:49;;;;;;;;;;;16.00;83.50;;;14.75;58.37;96142.44;10406947;28;2111;-83
2021/06/04 02:11:51;;;;;;;;;;;15.90;83.60;;;14.58;58.60;96142.97;10403202;28;1949;-82
2021/06/04 02:16:54;;;;;;;;;;;15.80;83.60;;;14.55;58.86;96146.22;10395211;28;2082;-83
2021/06/04 02:21:56;;;;;;;;;;;15.70;83.90;;;14.42;59.39;96146.91;10394927;28;2133;-84
2021/06/04 02:27:00;;;;;;;;;;;15.60;84.20;;;14.40;60.13;96149.09;10388509;28;1993;-84
2021/06/04 02:32:02;;;;;;;;;;;15.50;85.30;;;14.38;60.48;96151.28;10391618;28;2272;-84
2021/06/04 02:37:05;;;;;;;;;;;15.50;86.00;;;14.34;60.89;96151.06;10397050;28;2123;-85
2021/06/04 02:42:07;;;;;;;;;;;15.40;86.20;;;14.37;60.45;96144.25;10388735;28;2087;-85
2021/06/04 02:47:11;;;;;;;;;;;15.40;86.10;;;14.33;60.56;96144.03;10415225;28;1922;-82
2021/06/04 02:52:13;;;;;;;;;;;15.40;86.40;;;14.31;61.20;96134.59;10416948;28;2125;-84
2021/06/04 02:57:15;;;;;;;;;;;15.40;87.00;;;14.27;60.72;96134.38;10424711;28;1807;-85
2021/06/04 03:02:18;;;;;;;;;;;15.40;86.80;;;14.22;61.32;96139.84;10449926;28;1586;-83
2021/06/04 03:07:23;;;;;;;;;;;15.30;87.00;;;14.21;61.12;96140.13;10411456;28;1952;-83
2021/06/04 03:12:25;;;;;;;;;;;15.30;87.10;;;14.26;60.97;96148.19;10411080;28;2105;-85
2021/06/04 03:17:28;;;;;;;;;;;15.30;87.50;;;14.37;60.51;96149.66;10438486;28;2180;-86
2021/06/04 03:22:30;;;;;;;;;;;15.30;87.10;;;14.48;60.19;96148.47;10418910;28;2133;-84
2021/06/04 03:27:33;;;;;;;;;;;15.30;87.20;;;14.58;60.14;96151.06;10420395;28;2097;-84
2021/06/04 03:32:35;;;;;;;;;;;15.40;87.20;;;14.56;60.36;96153.25;10413914;28;2168;-83
2021/06/04 03:37:38;;;;;;;;;;;15.40;87.10;;;14.52;60.34;96159.53;10401603;28;2075;-83
2021/06/04 03:42:42;;;;;;;;;;;15.50;87.70;;;14.49;61.17;96166.31;10398712;28;2155;-82
2021/06/04 03:47:44;;;;;;;;;;;15.50;87.80;;;14.50;60.94;96161.72;10400813;28;2334;-82
2021/06/04 03:52:47;;;;;;;;;;;15.40;88.00;;;14.52;62.03;96165.75;10407462;28;2157;-85
2021/06/04 03:57:49;;;;;;;;;;;15.40;88.80;;;14.64;62.55;96161.84;10405076;28;1529;-82
2021/06/04 04:02:52;;;;;;;;;;;15.50;89.60;;;14.80;62.23;96163.25;10402822;28;2032;-82
2021/06/04 04:07:55;;;;;;;;;;;15.50;89.80;;;14.99;61.59;96166.78;10414380;28;1910;-82
2021/06/04 04:12:58;;;;;;;;;;;15.80;89.70;;;15.19;60.25;96170.28;10414804;28;2296;-87
2021/06/04 04:18:04;;;;;;;;;;;15.90;88.90;;;15.35;59.94;96171.69;10411858;28;2446;-84
2021/06/04 04:23:07;;;;;;;;;;;16.10;88.60;;;15.52;59.49;96163.81;10408243;28;1560;-84
2021/06/04 04:28:09;;;;;;;;;;;16.20;88.40;;;15.76;59.36;96168.34;10408105;28;1923;-82
2021/06/04 04:33:14;;;;;;;;;;;16.30;88.50;;;15.99;59.42;96162.00;10399935;28;2212;-83
2021/06/04 04:38:20;;;;;;;;;;;16.60;88.50;;;16.20;58.00;96168.63;10393370;28;2045;-84
2021/06/04 04:43:23;;;;;;;;;;;16.80;88.00;;;16.35;58.35;96169.44;10404723;28;2252;-83
2021/06/04 04:48:25;;;;;;;;;;;17.00;87.80;;;16.42;58.91;96159.03;10396112;28;2153;-84
2021/06/04 04:53:30;;;;;;;;;;;17.10;87.60;;;16.73;58.04;96170.09;10390706;28;1586;-82
2021/06/04 04:58:34;;;;;;;;;;;17.30;87.80;;;17.02;57.28;96176.00;10394030;28;2100;-82
2021/06/04 05:03:36;;;;;;;;;;;17.50;87.40;;;17.26;56.38;96164.88;10404242;28;2224;-82
2021/06/04 05:08:39;;;;;;;;;;;17.80;86.40;;;17.69;55.05;96175.28;10400367;28;1793;-82
2021/06/04 05:13:41;;;;;;;;;;;18.20;85.50;;;18.12;53.05;96172.06;10393315;28;2112;-84
2021/06/04 05:18:44;;;;;;;;;;;18.50;84.00;;;18.25;53.72;96171.16;10399804;28;2076;-84
2021/06/04 05:23:46;;;;;;;;;;;18.80;84.00;;;18.57;53.02;96171.94;10425298;28;2158;-82
2021/06/04 05:28:48;;;;;;;;;;;19.00;83.70;;;19.02;51.64;96177.22;10428690;28;1335;-84
2021/06/04 05:33:51;;;;;;;;;;;19.30;82.80;;;19.26;50.83;96185.75;10446549;28;1485;-83
2021/06/04 05:38:55;;;;;;;;;;;19.70;81.70;;;19.52;50.48;96180.31;10440959;28;1336;-85
2021/06/04 05:43:57;;;;;;;;;;;20.00;81.30;;;19.83;50.16;96191.09;10421296;28;1969;-86
2021/06/04 05:48:59;;;;;;;;;;;20.30;81.00;;;20.40;48.73;96196.28;10428994;28;2116;-83
2021/06/04 05:54:02;;;;;;;;;;;20.60;80.50;;;20.70;48.08;96201.81;10415643;28;1331;-83
2021/06/04 05:59:04;;;;;;;;;;;20.90;79.70;;;20.78;48.13;96203.72;10413442;28;1748;-82
2021/06/04 06:04:07;;;;;;;;;;;21.00;79.40;;;21.18;47.74;96206.06;10416322;28;1980;-82
2021/06/04 06:09:09;;;;;;;;;;;21.40;79.00;;;21.11;47.48;96203.84;10406431;28;1488;-80
2021/06/04 06:14:12;;;;;;;;;;;21.70;78.10;;;20.89;48.42;96220.53;10434376;28;2195;-82
2021/06/04 06:19:16;;;;;;;;;;;21.60;78.40;;;21.31;47.15;96215.97;10406644;28;2237;-86
2021/06/04 06:24:22;;;;;;;;;;;21.70;78.30;;;21.16;48.37;96224.75;10398070;28;1914;-82
2021/06/04 06:29:27;;;;;;;;;;;21.80;78.50;;;21.08;48.44;96222.88;10414547;28;2155;-82
2021/06/04 06:34:29;;;;;;;;;;;21.70;78.40;;;21.07;48.49;96224.00;10410365;28;2149;-83
2021/06/04 06:39:32;;;;;;;;;;;21.70;78.70;;;21.34;48.26;96226.28;10425775;28;2084;-84
2021/06/04 06:44:37;;;;;;;;;;;21.80;78.80;;;21.52;48.14;96229.69;10417734;28;1990;-86
2021/06/04 06:49:40;;;;;;;;;;;21.90;78.90;;;21.83;48.07;96221.91;10413184;28;2129;-83
2021/06/04 06:54:43;;;;;;;;;;;22.20;79.00;;;21.97;46.83;96227.09;10394844;28;2025;-82
2021/06/04 06:59:45;;;;;;;;;;;22.70;77.40;;;23.27;44.03;96233.09;10408604;28;2054;-83
2021/06/04 07:04:49;;;;;;;;;;;23.30;76.60;;;23.70;42.84;96230.53;10399168;28;2109;-87
2021/06/04 07:09:54;;;;;;;;;;;23.80;75.00;;;23.93;42.53;96232.75;10410122;28;2005;-80
2021/06/04 07:14:57;;;;;;;;;;;24.30;74.00;;;23.76;42.87;96233.03;10417417;28;2128;-83
2021/06/04 07:20:03;;;;;;;;;;;24.40;73.20;;;23.84;43.89;96234.84;10398987;28;1340;-84
2021/06/04 07:25:08;;;;;;;;;;;24.30;73.80;;;24.11;42.84;96233.25;10408202;28;2052;-84
2021/06/04 07:30:11;;;;;;;;;;;24.50;74.00;;;24.37;43.20;96243.84;10412137;28;2071;-84
2021/06/04 07:35:14;;;;;;;;;;;24.70;74.10;;;24.52;42.59;96237.56;10394257;28;2276;-84
2021/06/04 07:40:17;;;;;;;;;;;24.80;73.40;;;24.89;41.75;96240.88;10399981;28;2411;-83
2021/06/04 07:45:25;;;;;;;;;;;25.10;72.80;;;25.09;40.95;96239.03;10406220;28;2103;-81
2021/06/04 07:50:31;;;;;;;;;;;25.40;71.80;;;24.09;43.46;96241.84;10403562;28;2114;-85
2021/06/04 07:55:33;;;;;;;;;;;25.00;72.60;;;24.90;42.49;96238.94;10407332;28;1426;-87
2021/06/04 08:00:37;;;;;;;;;;;25.00;73.90;;;24.95;42.60;96233.16;10419206;28;2122;-84
2021/06/04 08:05:47;;;;;;;;;;;25.40;73.30;;;25.19;42.60;96241.25;10406569;28;2168;-81
2021/06/04 08:10:53;;;;;;;;;;;25.70;73.00;;;24.71;44.05;96236.88;10400433;28;2235;-84
2021/06/04 08:16:00;;;;;;;;;;;25.60;73.00;;;25.52;41.83;96231.81;10410830;28;1621;-86
2021/06/04 08:21:02;;;;;;;;;;;25.90;72.60;;;25.58;41.59;96233.13;10411389;28;2163;-83
2021/06/04 08:26:15;;;;;;;;;;;26.10;72.30;;;26.14;40.64;96229.97;10412236;28;2213;-84
2021/06/04 08:31:28;;;;;;;;;;;26.30;72.00;;;26.10;40.77;96232.69;10406300;28;2187;-86
2021/06/04 08:36:31;;;;;;;;;;;26.50;71.40;;;25.93;41.04;96238.63;10421533;28;2167;-82
2021/06/04 08:41:34;;;;;;;;;;;26.50;71.30;;;26.17;40.58;96234.00;10429034;28;2130;-86
2021/06/04 08:46:37;;;;;;;;;;;26.60;71.10;;;26.26;41.56;96229.03;10410881;28;2044;-84
2021/06/04 08:51:39;;;;;;;;;;;26.60;71.80;;;26.70;39.81;96225.94;10413987;28;2108;-85
2021/06/04 08:56:44;;;;;;;;;;;27.00;70.90;;;27.30;38.93;96224.25;10404382;28;2003;-85
2021/06/04 09:01:47;;;;;;;;;;;27.50;70.20;;;27.76;38.11;96217.81;10416416;28;1866;-82
2021/06/04 09:06:58;;;;;;;;;;;28.10;69.50;;;27.76;38.72;96209.53;10393283;28;2110;-83
2021/06/04 09:12:00;;;;;;;;;;;28.10;69.70;;;27.56;38.71;96217.91;10419919;28;2175;-81
2021/06/04 09:17:04;;;;;;;;;;;28.20;68.80;;;27.10;38.89;96215.25;10408437;28;2012;-82
2021/06/04 09:22:07;;;;;;;;;;;28.10;68.00;;;26.95;40.11;96216.94;10423975;28;1862;-81
2021/06/04 09:27:09;;;;;;;;;;;28.00;69.10;;;27.86;37.93;96214.38;10402979;28;1907;-84
2021/06/04 09:32:12;;;;;;;;;;;28.10;68.70;;;28.02;36.49;96217.78;10411366;28;1865;-82
2021/06/04 09:37:15;;;;;;;;;;;28.60;66.50;;;28.43;35.83;96226.94;10401242;28;2098;-81
2021/06/04 09:42:18;;;;;;;;;;;28.70;66.10;;;27.58;37.87;96220.31;10402582;28;2048;-82
2021/06/04 09:47:21;;;;;;;;;;;28.40;66.50;;;27.79;37.60;96220.63;10401008;28;2001;-82
2021/06/04 09:52:23;;;;;;;;;;;28.30;66.80;;;28.35;36.46;96219.75;10404979;28;1842;-82
2021/06/04 09:57:26;;;;;;;;;;;28.50;66.60;;;29.21;34.41;96223.38;10414485;28;2285;-83
2021/06/04 10:02:28;;;;;;;;;;;29.10;65.70;;;29.30;33.46;96212.75;10406836;28;1354;-86
2021/06/04 10:07:31;;;;;;;;;;;29.40;64.00;;;29.53;32.36;96209.78;10429257;28;2069;-85
2021/06/04 10:12:33;;;;;;;;;;;29.70;62.40;;;29.19;33.42;96211.88;10407540;28;2101;-86
2021/06/04 10:17:42;;;;;;;;;;;29.60;62.70;;;29.48;33.22;96202.59;10413948;28;2371;-86
2021/06/04 10:22:45;;;;;;;;;;;29.70;62.90;;;29.56;33.46;96193.19;10416619;28;2207;-83
2021/06/04 10:27:48;;;;;;;;;;;30.10;62.70;;;28.37;34.91;96197.25;10407365;28;2134;-86
2021/06/04 10:32:50;;;;;;;;;;;29.80;61.80;;;28.02;36.84;96192.91;10415083;28;2136;-83
2021/06/04 10:37:53;;;;;;;;;;;29.40;63.80;;;28.20;35.91;96187.59;10421652;28;1668;-84
2021/06/04 10:42:55;;;;;;;;;;;29.20;64.00;;;29.73;33.04;96174.28;10416531;28;2130;-82
2021/06/04 10:47:59;;;;;;;;;;;30.50;61.90;;;30.15;31.84;96174.47;10411144;28;2211;-83
2021/06/04 10:53:02;;;;;;;;;;;31.60;60.00;;;29.61;31.51;96167.91;10411398;28;2127;-84
2021/06/04 10:58:04;;;;;;;;;;;32.00;58.20;;;29.66;30.07;96158.44;10407049;28;2191;-86
2021/06/04 11:03:09;;;;;;;;;;;31.70;56.20;;;29.98;29.68;96157.78;10409441;28;2067;-84
2021/06/04 11:08:12;;;;;;;;;;;31.40;56.40;;;29.35;31.23;96157.03;10407472;28;2170;-82
2021/06/04 11:13:14;;;;;;;;;;;31.60;56.20;;;29.46;30.24;96146.81;10403045;28;2027;-85
2021/06/04 11:18:17;;;;;;;;;;;31.30;56.50;;;29.22;29.03;96150.22;10417908;28;2266;-84
2021/06/04 11:23:19;;;;;;;;;;;31.10;54.90;;;28.72;31.18;96147.03;10409324;28;1905;-84
2021/06/04 11:28:22;;;;;;;;;;;30.90;56.00;;;28.93;29.75;96138.94;10414701;28;2086;-84
2021/06/04 11:33:25;;;;;;;;;;;30.70;55.10;;;28.84;31.37;96132.91;10423192;28;1319;-84
2021/06/04 11:38:31;;;;;;;;;;;30.30;56.90;;;28.38;34.82;96133.31;10427008;28;2098;-85
2021/06/04 11:43:33;;;;;;;;;;;29.90;59.50;;;27.81;36.18;96135.44;10420416;28;1933;-84
2021/06/04 11:48:35;;;;;;;;;;;29.30;61.20;;;28.07;37.30;96119.94;10408085;28;2192;-82
2021/06/04 11:53:38;;;;;;;;;;;28.80;63.80;;;28.12;34.82;96112.09;10431802;28;1343;-81
2021/06/04 11:58:40;;;;;;;;;;;29.00;61.60;;;28.80;32.80;96109.94;10412156;28;2055;-83
2021/06/04 12:03:43;;;;;;;;;;;29.10;60.70;;;28.49;33.26;96117.59;10418574;28;2367;-83
2021/06/04 12:08:45;;;;;;;;;;;29.30;60.00;;;28.04;34.64;96106.84;10425740;28;1989;-88
2021/06/04 12:13:49;;;;;;;;;;;29.00;61.00;;;28.20;34.36;96108.22;10430255;28;2134;-85
2021/06/04 12:18:51;;;;;;;;;;;29.00;61.00;;;27.66;33.93;96100.47;10405614;28;1377;-83
2021/06/04 12:23:54;;;;;;;;;;;28.70;60.00;;;28.27;33.85;96101.97;10401273;28;1656;-82
2021/06/04 12:28:56;;;;;;;;;;;28.80;60.80;;;27.58;35.87;96101.56;10418547;28;1967;-84
2021/06/04 12:33:59;;;;;;;;;;;28.70;61.70;;;27.57;35.46;96108.25;10406432;28;1273;-82
2021/06/04 12:39:01;;;;;;;;;;;28.50;61.90;;;28.22;34.09;96094.81;10412156;28;1268;-85
2021/06/04 12:44:04;;;;;;;;;;;28.50;61.50;;;28.89;33.01;96098.56;10417252;28;2116;-84
2021/06/04 12:49:08;;;;;;;;;;;29.10;61.50;;;27.99;33.18;96097.75;10412011;28;2040;-84
2021/06/04 12:54:13;;;;;;;;;;;29.10;59.60;;;28.33;32.52;96094.16;10414920;28;1984;-85
2021/06/04 12:59:16;;;;;;;;;;;29.10;59.40;;;28.85;31.96;96084.69;10423083;28;2023;-86
2021/06/04 13:04:20;;;;;;;;;;;29.30;59.10;;;29.27;33.13;96080.66;10418688;28;2072;-84
2021/06/04 13:09:25;;;;;;;;;;;29.60;60.30;;;28.98;31.00;96074.16;10414969;28;1899;-85
2021/06/04 13:14:28;;;;;;;;;;;29.60;57.60;;;29.16;30.93;96077.03;10412295;28;2073;-86
2021/06/04 13:19:33;;;;;;;;;;;29.60;58.00;;;29.18;30.66;96066.34;10414965;28;2021;-84
2021/06/04 13:24:37;;;;;;;;;;;29.60;57.10;;;28.36;31.63;96065.72;10406723;28;2134;-83
2021/06/04 13:29:39;;;;;;;;;;;29.50;57.00;;;28.07;32.04;96073.75;10403972;28;1914;-85
2021/06/04 13:34:42;;;;;;;;;;;29.10;57.50;;;28.67;31.13;96072.72;10423597;28;2095;-84
2021/06/04 13:39:44;;;;;;;;;;;29.10;57.80;;;28.10;30.99;96072.97;10403903;28;2343;-86
2021/06/04 13:44:46;;;;;;;;;;;28.90;56.90;;;27.87;29.75;96072.34;10414980;28;2047;-82
2021/06/04 13:49:50;;;;;;;;;;;28.80;55.30;;;28.50;29.04;96063.09;10409136;28;2167;-85
2021/06/04 13:54:54;;;;;;;;;;;28.90;55.20;;;28.80;31.01;96060.94;10411273;28;2023;-84
2021/06/04 13:59:57;;;;;;;;;;;29.30;57.30;;;28.05;30.36;96044.88;10420775;28;2131;-83
2021/06/04 14:05:01;;;;;;;;;;;29.10;55.60;;;28.53;30.27;96048.50;10403077;28;2186;-85
2021/06/04 14:10:03;;;;;;;;;;;29.10;56.30;;;27.69;30.78;96077.69;10401521;28;1557;-87
2021/06/04 14:15:08;;;;;;;;;;;28.80;55.30;;;25.50;41.14;96091.78;10401312;28;2109;-83
2021/06/04 14:20:10;;;;;;;;;;;27.50;63.80;;;25.43;41.98;96099.88;10405726;28;2240;-84
2021/06/04 14:25:13;;;;;;;;;;;26.60;66.60;;;24.67;43.31;96101.28;10396501;28;2556;-84
2021/06/04 14:30:16;;;;;;;;;;;25.90;68.10;;;24.41;41.83;96121.06;10402007;28;1233;-86
2021/06/04 14:35:18;;;;;;;;;;;25.40;67.10;;;24.36;41.56;96129.56;10396551;28;1932;-83
2021/06/04 14:40:20;;;;;;;;;;;25.20;67.60;;;24.37;41.67;96134.72;10400258;28;2293;-85
2021/06/04 14:45:24;;;;;;;;;;;25.10;68.00;;;24.15;41.55;96152.56;10385585;28;2066;-85
2021/06/04 14:50:27;;;;;;;;;;;25.00;67.70;;;23.80;42.55;96140.63;10399405;28;2261;-84
2021/06/04 14:55:29;;;;;;;;;;;24.70;68.30;;;23.85;43.66;96132.91;10422808;28;1787;-82
2021/06/04 15:00:32;;;;;;;;;;;24.70;69.80;;;23.39;45.55;96145.28;10436205;28;1589;-85
2021/06/04 15:05:36;;;;;;;;;;;24.50;71.10;;;22.92;47.23;96151.31;10421449;28;1956;-83
2021/06/04 15:10:38;;;;;;;;;;;23.90;73.00;;;22.77;47.76;96127.28;10405079;28;2555;-84
2021/06/04 15:15:42;;;;;;;;;;;23.60;74.10;;;22.57;47.72;96143.50;10406442;28;1542;-84
2021/06/04 15:20:44;;;;;;;;;;;23.50;74.10;;;22.48;48.00;96153.78;10409392;28;1664;-82
2021/06/04 15:25:48;;;;;;;;;;;23.30;74.70;;;22.66;47.69;96152.44;10416617;28;1977;-82
2021/06/04 15:30:50;;;;;;;;;;;23.30;75.00;;;22.57;48.61;96162.69;10403635;28;2090;-80
2021/06/04 15:35:53;;;;;;;;;;;23.30;75.60;;;22.39;51.07;96167.59;10400387;28;2084;-84
2021/06/04 15:40:56;;;;;;;;;;;23.30;77.50;;;22.05;54.42;96187.06;10422718;28;2436;-84
2021/06/04 15:46:25;;;;;;;;;;;23.10;80.70;;;21.55;57.62;96191.53;10409290;28;1887;-83
2021/06/04 15:51:27;;;;;;;;;;;22.80;83.20;;;20.97;60.47;96192.38;10407617;28;1573;-81
2021/06/04 15:56:30;;;;;;;;;;;22.40;85.30;;;20.41;63.10;96197.88;10411855;28;2083;-84
2021/06/04 16:01:32;;;;;;;;;;;21.90;87.60;;;19.69;68.86;96180.34;10403704;28;2513;-82
2021/06/04 16:06:35;;;;;;;;;;;21.30;92.00;;;19.00;77.95;96174.81;10400793;28;2478;-83
2021/06/04 16:11:40;;;;;;;;;;;20.60;99.90;;;18.62;81.35;96163.63;10409555;28;2000;-81
2021/06/04 16:16:43;;;;;;;;;;;20.00;99.90;;;18.39;82.11;96153.97;10415078;28;1590;-83
2021/06/04 16:21:45;;;;;;;;;;;19.60;99.90;;;18.34;83.97;96152.16;10404284;28;2340;-81
2021/06/04 16:26:48;;;;;;;;;;;19.50;99.90;;;18.06;80.38;96141.44;10412918;28;1899;-82
2021/06/04 16:31:54;;;;;;;;;;;19.30;99.90;;;18.07;81.44;96143.09;10418744;28;2224;-85
2021/06/04 16:36:56;;;;;;;;;;;19.20;99.90;;;18.01;83.16;96143.53;10405750;28;2247;-82
2021/06/04 16:42:01;;;;;;;;;;;19.10;99.90;;;18.06;82.25;96137.94;10397413;28;1905;-82
2021/06/04 16:47:04;;;;;;;;;;;19.00;99.90;;;17.96;83.43;96122.69;10420413;28;1921;-83
2021/06/04 16:52:07;;;;;;;;;;;19.00;99.90;;;17.96;82.89;96108.28;10417521;28;2106;-85
2021/06/04 16:57:10;;;;;;;;;;;18.90;99.90;;;17.92;82.77;96101.88;10401125;28;1762;-83
2021/06/04 17:02:13;;;;;;;;;;;18.90;99.90;;;17.86;85.09;96092.22;10397631;28;1550;-83
2021/06/04 17:07:16;;;;;;;;;;;18.90;99.90;;;17.75;81.93;96081.66;10397401;28;1910;-82
2021/06/04 17:12:19;;;;;;;;;;;18.80;99.90;;;17.66;82.64;96066.34;10394120;28;1914;-82
2021/06/04 17:17:24;;;;;;;;;;;18.70;99.90;;;17.69;83.74;96052.94;10398458;28;1740;-82
2021/06/04 17:22:27;;;;;;;;;;;18.70;99.90;;;17.72;81.20;96038.75;10406150;28;2015;-84
2021/06/04 17:27:30;;;;;;;;;;;18.70;99.90;;;17.82;81.96;96054.81;10392186;28;2044;-84
2021/06/04 17:32:33;;;;;;;;;;;18.70;99.90;;;17.97;84.99;96052.78;10390452;28;1914;-80
2021/06/04 17:37:35;;;;;;;;;;;18.80;99.90;;;18.05;86.78;96063.69;10409388;28;2052;-81
2021/06/04 17:42:38;;;;;;;;;;;18.90;99.90;;;18.23;86.25;96080.88;10401376;28;1716;-84
2021/06/04 17:47:40;;;;;;;;;;;19.00;99.90;;;18.31;85.27;96082.03;10410500;28;1993;-83
2021/06/04 17:52:43;;;;;;;;;;;19.10;99.90;;;18.37;88.34;96088.94;10409171;28;2136;-84
2021/06/04 17:57:46;;;;;;;;;;;19.20;99.90;;;18.40;87.46;96096.47;10398791;28;2310;-84
2021/06/04 18:02:48;;;;;;;;;;;19.30;99.90;;;18.30;87.23;96089.38;10415485;28;2016;-82
2021/06/04 18:07:51;;;;;;;;;;;19.20;99.90;;;18.30;88.20;96097.56;10426020;28;1902;-82
2021/06/04 18:12:54;;;;;;;;;;;19.20;99.90;;;18.28;86.49;96099.78;10417283;28;1970;-82
2021/06/04 18:17:57;;;;;;;;;;;19.20;99.90;;;18.28;85.32;96094.34;10428149;28;2089;-86
2021/06/04 18:22:59;;;;;;;;;;;19.10;99.90;;;18.23;85.53;96083.59;10429757;28;1266;-85
2021/06/04 18:28:02;;;;;;;;;;;19.10;99.90;;;18.20;84.22;96078.81;10415027;28;1913;-85
2021/06/04 18:33:04;;;;;;;;;;;19.10;99.90;;;18.12;84.54;96085.00;10408710;28;1697;-84
2021/06/04 18:38:07;;;;;;;;;;;19.00;99.90;;;18.07;84.76;96099.56;10423648;28;2286;-84
2021/06/04 18:43:09;;;;;;;;;;;19.00;99.90;;;17.97;86.17;96107.19;10418178;28;2087;-84
2021/06/04 18:48:12;;;;;;;;;;;18.90;99.90;;;17.89;87.31;96105.22;10419407;28;1965;-83
2021/06/04 18:53:14;;;;;;;;;;;18.80;99.90;;;17.79;87.45;96109.00;10405695;28;1577;-83
2021/06/04 18:58:18;;;;;;;;;;;18.80;99.90;;;17.71;87.27;96107.00;10411141;28;1878;-83
2021/06/04 19:03:20;;;;;;;;;;;18.70;99.90;;;17.69;88.15;96099.16;10416513;28;1993;-85
2021/06/04 19:08:23;;;;;;;;;;;18.60;99.90;;;17.65;87.98;96098.19;10399426;28;1922;-84
2021/06/04 19:13:25;;;;;;;;;;;18.60;99.90;;;17.67;88.12;96117.69;10400206;28;1914;-83
2021/06/04 19:18:28;;;;;;;;;;;18.50;99.90;;;17.70;87.74;96108.94;10412400;28;1394;-86
2021/06/04 19:23:30;;;;;;;;;;;18.60;99.90;;;17.72;86.17;96106.72;10411489;28;2080;-84
2021/06/04 19:28:32;;;;;;;;;;;18.60;99.90;;;17.72;86.07;96114.88;10410122;28;2120;-84
2021/06/04 19:33:35;;;;;;;;;;;18.60;99.90;;;17.74;85.36;96114.56;10394247;28;1597;-84
2021/06/04 19:38:42;;;;;;;;;;;18.60;99.90;;;17.74;84.49;96122.72;10406052;28;1578;-83
2021/06/04 19:43:44;;;;;;;;;;;18.60;99.90;;;17.75;83.95;96125.16;10415127;28;2212;-82
2021/06/04 19:48:47;;;;;;;;;;;18.60;99.90;;;17.78;83.56;96129.16;10397745;28;2583;-85
2021/06/04 19:53:49;;;;;;;;;;;18.60;99.90;;;17.74;84.28;96134.38;10412726;28;2215;-83
2021/06/04 19:58:56;;;;;;;;;;;18.60;99.90;;;17.75;82.67;96125.16;10402640;28;2033;-81
2021/06/04 20:03:58;;;;;;;;;;;18.60;99.90;;;17.77;82.60;96133.00;10400324;28;2156;-84
2021/06/04 20:09:03;;;;;;;;;;;18.70;99.90;;;17.72;82.88;96125.75;10421033;28;2331;-84
2021/06/04 20:14:06;;;;;;;;;;;18.60;99.90;;;17.78;83.36;96124.50;10431478;28;2483;-81
2021/06/04 20:19:08;;;;;;;;;;;18.60;99.90;;;17.66;83.15;96121.53;10436054;28;2092;-84
2021/06/04 20:24:10;;;;;;;;;;;18.60;99.90;;;17.60;82.71;96117.31;10435477;28;2218;-83
2021/06/04 20:29:13;;;;;;;;;;;18.60;99.90;;;17.58;83.60;96119.56;10447660;28;1954;-82
2021/06/04 20:34:15;;;;;;;;;;;18.50;99.90;;;17.51;84.53;96130.06;10419226;28;1280;-84
2021/06/04 20:39:17;;;;;;;;;;;18.50;99.90;;;17.48;85.32;96115.16;10410794;28;2038;-82
2021/06/04 20:44:32;;;;;;;;;;;18.40;99.90;;;17.43;85.76;96117.19;10391797;28;2106;-84
2021/06/04 20:49:34;;;;;;;;;;;18.40;99.90;;;17.42;84.67;96093.84;10411604;28;1922;-82
2021/06/04 20:54:36;;;;;;;;;;;18.40;99.90;;;17.25;86.11;96108.13;10391559;28;1381;-82
2021/06/04 20:59:39;;;;;;;;;;;18.30;99.90;;;17.14;87.45;96104.84;10402812;28;1593;-82
2021/06/04 21:04:41;;;;;;;;;;;18.20;99.90;;;16.99;88.64;96106.00;10401582;28;2044;-84
2021/06/04 21:09:45;;;;;;;;;;;18.10;99.90;;;16.88;89.30;96091.03;10406929;28;1910;-85
2021/06/04 21:14:47;;;;;;;;;;;18.00;99.90;;;16.79;89.52;96101.00;10399092;28;1607;-84
2021/06/04 21:19:50;;;;;;;;;;;17.90;99.90;;;16.79;89.75;96103.72;10389739;28;2011;-82
2021/06/04 21:24:52;;;;;;;;;;;17.80;99.90;;;16.67;90.54;96090.66;10399285;28;2095;-84
2021/06/04 21:29:55;;;;;;;;;;;17.70;99.90;;;16.64;90.16;96095.88;10410893;28;2100;-85
2021/06/04 21:34:57;;;;;;;;;;;17.70;99.90;;;16.57;90.76;96088.16;10396919;28;1863;-85
2021/06/04 21:40:00;;;;;;;;;;;17.70;99.90;;;16.56;89.82;96089.28;10415201;28;1885;-82
2021/06/04 21:45:02;;;;;;;;;;;17.60;99.90;;;16.51;88.76;96085.84;10423595;28;1996;-85
2021/06/04 21:50:04;;;;;;;;;;;17.60;99.90;;;16.62;87.61;96082.63;10434187;28;2075;-82
2021/06/04 21:55:07;;;;;;;;;;;17.60;99.90;;;16.45;88.06;96082.44;10412841;28;2056;-83
2021/06/04 22:00:09;;;;;;;;;;;17.50;99.90;;;16.36;88.18;96079.66;10427900;28;2214;-83
2021/06/04 22:05:11;;;;;;;;;;;17.50;99.90;;;16.28;87.41;96080.34;10452964;28;1803;-81
2021/06/04 22:10:14;;;;;;;;;;;17.40;99.90;;;16.26;88.30;96081.75;10436802;28;2306;-82
2021/06/04 22:15:17;;;;;;;;;;;17.30;99.90;;;16.21;88.79;96072.59;10418917;28;2226;-82
2021/06/04 22:20:19;;;;;;;;;;;17.20;99.90;;;16.13;89.46;96083.38;10410869;28;1824;-83
2021/06/04 22:25:21;;;;;;;;;;;17.20;99.90;;;16.11;89.58;96077.44;10413548;28;1382;-85
2021/06/04 22:30:24;;;;;;;;;;;17.10;99.90;;;16.02;90.48;96074.59;10425339;28;1918;-84
2021/06/04 22:35:26;;;;;;;;;;;17.10;99.90;;;15.98;90.17;96070.91;10413042;28;2079;-84
2021/06/04 22:40:29;;;;;;;;;;;17.00;99.90;;;15.87;90.47;96064.88;10407102;28;1620;-85
2021/06/04 22:45:31;;;;;;;;;;;17.00;99.90;;;15.78;92.15;96069.38;10414789;28;2008;-82
2021/06/04 22:50:34;;;;;;;;;;;16.90;99.90;;;15.65;93.30;96059.34;10408018;28;2128;-83
2021/06/04 22:55:36;;;;;;;;;;;16.80;99.90;;;15.60;92.94;96068.31;10397529;28;2116;-83
2021/06/04 23:00:38;;;;;;;;;;;16.70;99.90;;;15.56;93.54;96067.28;10400069;28;1842;-84
2021/06/04 23:05:41;;;;;;;;;;;16.70;99.90;;;15.50;93.74;96073.91;10406923;28;2096;-84
2021/06/04 23:10:43;;;;;;;;;;;17.60;99.90;;;15.56;94.04;96064.59;10412238;28;1978;-83